createdAt,value
2023-05-15T00:04:20.872Z,12.21
2023-05-15T00:09:22.665Z,12.23
2023-05-15T00:14:24.653Z,12.24
2023-05-15T00:19:26.423Z,12.22
2023-05-15T00:24:28.106Z,12.20
2023-05-15T00:29:29.966Z,12.18
2023-05-15T00:34:31.697Z,12.17
2023-05-15T00:39:33.508Z,12.12
2023-05-15T00:44:36.367Z,12.08
2023-05-15T00:49:38.950Z,12.05
2023-05-15T00:54:40.934Z,12.02
2023-05-15T00:59:43.863Z,12.01
2023-05-15T01:04:46.068Z,12.00
2023-05-15T01:09:50.989Z,12.01
2023-05-15T01:14:52.764Z,12.00
2023-05-15T01:19:58.221Z,11.99
2023-05-15T01:25:34.347Z,11.98
2023-05-15T01:30:40.714Z,11.96
2023-05-15T01:35:55.043Z,11.97
2023-05-15T01:41:11.031Z,11.99
2023-05-15T01:46:17.589Z,12.00
2023-05-15T01:51:21.026Z,12.01
2023-05-15T01:56:24.353Z,12.04
2023-05-15T02:01:28.291Z,12.05
2023-05-15T02:06:32.263Z,12.09
2023-05-15T02:11:34.730Z,12.15
2023-05-15T02:16:38.046Z,12.18
2023-05-15T02:21:39.735Z,12.22
2023-05-15T02:27:09.140Z,12.25
2023-05-15T02:32:29.181Z,12.27
2023-05-15T02:37:32.515Z,12.29
2023-05-15T02:42:36.219Z,12.25
2023-05-15T02:47:40.755Z,12.23
2023-05-15T02:52:42.686Z,12.19
2023-05-15T02:57:44.354Z,12.19
2023-05-15T03:02:46.054Z,12.17
2023-05-15T03:07:47.817Z,12.16
2023-05-15T03:12:49.825Z,12.18
2023-05-15T03:17:51.705Z,12.20
2023-05-15T03:22:53.639Z,12.23
2023-05-15T03:27:55.433Z,12.23
2023-05-15T03:32:58.016Z,12.22
2023-05-15T03:37:59.740Z,12.22
2023-05-15T03:43:01.448Z,12.22
2023-05-15T03:48:03.256Z,12.23
2023-05-15T03:53:05.095Z,12.24
2023-05-15T03:58:06.854Z,12.27
2023-05-15T04:07:14.338Z,12.34
2023-05-15T04:12:16.122Z,12.29
2023-05-15T04:17:17.922Z,12.25
2023-05-15T04:22:19.635Z,12.24
2023-05-15T04:27:21.593Z,12.28
2023-05-15T04:32:23.306Z,12.35
2023-05-15T04:37:24.961Z,12.43
2023-05-15T04:42:26.795Z,12.55
2023-05-15T04:47:28.956Z,12.70
2023-05-15T04:52:30.884Z,12.82
2023-05-15T04:57:32.563Z,12.92
2023-05-15T05:02:34.292Z,13.02
2023-05-15T05:07:36.296Z,13.10
2023-05-15T05:12:38.085Z,13.16
2023-05-15T05:17:39.991Z,13.24
2023-05-15T05:22:42.544Z,13.41
2023-05-15T05:27:44.468Z,13.62
2023-05-15T05:32:46.205Z,13.84
2023-05-15T05:37:47.900Z,14.06
2023-05-15T05:42:49.610Z,14.08
2023-05-15T05:47:51.328Z,13.97
2023-05-15T05:52:53.216Z,13.92
2023-05-15T05:57:55.273Z,14.01
2023-05-15T06:02:59.449Z,14.08
2023-05-15T06:08:03.965Z,14.13
2023-05-15T06:13:05.629Z,14.19
2023-05-15T06:18:07.514Z,14.27
2023-05-15T06:23:09.712Z,14.39
2023-05-15T06:28:11.450Z,14.49
2023-05-15T06:33:13.141Z,14.48
2023-05-15T06:38:14.968Z,14.42
2023-05-15T06:43:16.625Z,14.44
2023-05-15T06:48:18.609Z,14.47
2023-05-15T06:53:21.033Z,14.43
2023-05-15T06:58:22.895Z,14.44
2023-05-15T07:03:24.635Z,14.49
2023-05-15T07:08:26.853Z,14.60
2023-05-15T07:13:28.472Z,14.68
2023-05-15T07:18:30.694Z,14.67
2023-05-15T07:23:32.691Z,14.70
2023-05-15T07:28:34.372Z,14.73
2023-05-15T07:33:36.123Z,14.86
2023-05-15T07:38:37.836Z,14.88
2023-05-15T07:43:39.508Z,14.81
2023-05-15T07:48:41.180Z,14.77
2023-05-15T07:53:43.318Z,14.76
2023-05-15T07:58:45.108Z,14.73
2023-05-15T08:03:46.925Z,14.81
2023-05-15T08:08:48.722Z,14.94
2023-05-15T08:13:50.514Z,15.08
2023-05-15T08:18:53.668Z,15.17
2023-05-15T08:23:56.127Z,15.17
2023-05-15T08:28:57.804Z,15.12
2023-05-15T08:33:59.480Z,15.03
2023-05-15T08:39:01.215Z,14.98
2023-05-15T08:44:05.089Z,14.92
2023-05-15T08:49:14.927Z,14.89
2023-05-15T08:54:16.885Z,14.84
2023-05-15T08:59:18.661Z,14.81
2023-05-15T09:04:20.872Z,14.95
2023-05-15T09:09:24.145Z,15.19
2023-05-15T09:14:25.831Z,15.37
2023-05-15T09:19:28.131Z,15.51
2023-05-15T09:24:31.586Z,15.58
2023-05-15T09:29:35.379Z,15.59
2023-05-15T09:34:41.390Z,15.47
2023-05-15T09:39:44.440Z,15.53
2023-05-15T09:44:46.750Z,15.47
2023-05-15T09:49:49.050Z,15.56
2023-05-15T09:54:51.094Z,15.91
2023-05-15T09:59:53.044Z,16.43
2023-05-15T10:04:57.010Z,16.75
2023-05-15T10:10:00.116Z,17.17
2023-05-15T10:15:02.975Z,17.79
2023-05-15T10:20:07.085Z,18.24
2023-05-15T10:25:16.569Z,18.39
2023-05-15T10:30:20.403Z,18.06
2023-05-15T10:35:22.960Z,17.58
2023-05-15T10:40:24.822Z,17.84
2023-05-15T10:45:27.852Z,18.52
2023-05-15T10:50:29.737Z,19.23
2023-05-15T10:55:31.698Z,19.53
2023-05-15T11:00:33.766Z,19.63
2023-05-15T11:06:08.941Z,19.90
2023-05-15T11:11:49.391Z,20.36
2023-05-15T11:16:54.017Z,20.44
2023-05-15T11:22:00.657Z,20.91
2023-05-15T11:27:03.624Z,21.16
2023-05-15T11:32:31.650Z,20.83
2023-05-15T11:37:38.014Z,21.48
2023-05-15T11:42:40.672Z,22.75
2023-05-15T11:47:45.382Z,22.77
2023-05-15T11:52:49.654Z,21.84
2023-05-15T11:57:51.357Z,20.75
2023-05-15T12:02:53.055Z,20.55
2023-05-15T12:07:55.012Z,21.13
2023-05-15T12:12:56.710Z,21.54
2023-05-15T12:17:58.397Z,21.58
2023-05-15T12:23:00.133Z,21.38
2023-05-15T12:28:04.680Z,21.32
2023-05-15T12:33:08.741Z,21.50
2023-05-15T12:38:15.889Z,21.40
2023-05-15T12:43:17.697Z,21.13
2023-05-15T12:48:19.446Z,20.91
2023-05-15T12:53:22.098Z,20.63
2023-05-15T12:58:23.824Z,20.32
2023-05-15T13:03:28.090Z,20.13
2023-05-15T13:08:29.922Z,20.17
2023-05-15T13:13:46.224Z,20.18
2023-05-15T13:18:48.757Z,20.19
2023-05-15T13:23:52.257Z,21.23
2023-05-15T13:28:54.045Z,21.60
2023-05-15T13:33:55.841Z,21.47
2023-05-15T13:38:57.548Z,21.25
2023-05-15T13:44:00.083Z,20.63
2023-05-15T13:49:01.736Z,20.36
2023-05-15T13:54:03.599Z,20.63
2023-05-15T13:59:05.243Z,20.42
2023-05-15T14:04:06.954Z,20.49
2023-05-15T14:09:08.806Z,21.34
2023-05-15T14:14:13.384Z,21.87
2023-05-15T14:19:16.007Z,22.06
2023-05-15T14:24:17.805Z,20.89
2023-05-15T14:29:19.535Z,19.93
2023-05-15T14:34:22.559Z,19.40
2023-05-15T14:39:24.278Z,18.81
2023-05-15T14:44:26.149Z,18.05
2023-05-15T14:49:27.828Z,17.41
2023-05-15T14:54:29.910Z,17.17
2023-05-15T14:59:31.769Z,18.00
2023-05-15T15:04:34.507Z,18.68
2023-05-15T15:09:36.256Z,18.49
2023-05-15T15:14:37.970Z,18.21
2023-05-15T15:19:39.710Z,18.41
2023-05-15T15:24:41.398Z,18.53
2023-05-15T15:29:43.325Z,18.90
2023-05-15T15:34:44.990Z,18.63
2023-05-15T15:39:46.706Z,17.98
2023-05-15T15:44:48.349Z,17.62
2023-05-15T15:49:50.777Z,17.24
2023-05-15T15:54:52.478Z,16.84
2023-05-15T15:59:54.247Z,16.65
2023-05-15T16:04:55.958Z,16.60
2023-05-15T16:10:10.550Z,16.72
2023-05-15T16:15:23.086Z,18.26
2023-05-15T16:20:26.170Z,20.04
2023-05-15T16:25:28.034Z,20.94
2023-05-15T16:30:44.271Z,21.16
2023-05-15T16:35:49.507Z,21.36
2023-05-15T16:40:51.190Z,21.32
2023-05-15T16:45:52.852Z,21.06
2023-05-15T16:50:54.593Z,21.10
2023-05-15T16:55:56.246Z,20.69
2023-05-15T17:00:57.960Z,19.68
2023-05-15T17:06:00.160Z,18.80
2023-05-15T17:11:01.835Z,17.94
2023-05-15T17:16:03.680Z,17.35
2023-05-15T17:21:06.229Z,16.82
2023-05-15T17:26:07.879Z,16.29
2023-05-15T17:31:10.776Z,15.96
2023-05-15T17:36:13.428Z,15.66
2023-05-15T17:41:15.036Z,15.14
2023-05-15T17:46:16.809Z,14.61
2023-05-15T17:51:18.863Z,14.31
2023-05-15T17:56:21.505Z,14.15
2023-05-15T18:01:23.208Z,14.04
2023-05-15T18:06:25.317Z,13.91
2023-05-15T18:11:27.297Z,13.82
2023-05-15T18:16:29.981Z,13.70
2023-05-15T18:21:31.772Z,13.61
2023-05-15T18:26:33.515Z,13.49
2023-05-15T18:31:36.193Z,13.41
2023-05-15T18:36:38.001Z,13.37
2023-05-15T18:41:39.688Z,13.33
2023-05-15T18:46:41.550Z,13.33
2023-05-15T18:51:43.559Z,13.33
2023-05-15T18:56:45.649Z,13.23
2023-05-15T19:01:49.098Z,13.12
2023-05-15T19:06:50.978Z,12.95
2023-05-15T19:11:53.918Z,12.81
2023-05-15T19:17:05.945Z,12.73
2023-05-15T19:22:07.821Z,12.67
2023-05-15T19:27:09.499Z,12.63
2023-05-15T19:32:11.258Z,12.62
2023-05-15T19:37:12.937Z,12.66
2023-05-15T19:42:14.594Z,12.71
2023-05-15T19:47:16.221Z,12.75
2023-05-15T19:52:19.696Z,12.69
2023-05-15T19:57:21.337Z,12.54
2023-05-15T20:02:23.106Z,12.37
2023-05-15T20:07:24.984Z,12.20
2023-05-15T20:12:26.669Z,12.05
2023-05-15T20:17:28.390Z,11.91
2023-05-15T20:22:30.749Z,11.81
2023-05-15T20:27:33.145Z,11.72
2023-05-15T20:32:36.213Z,11.60
2023-05-15T20:37:41.110Z,11.47
2023-05-15T20:42:42.748Z,11.35
2023-05-15T20:47:44.569Z,11.28
2023-05-15T20:52:46.502Z,11.22
2023-05-15T20:57:49.196Z,11.19
2023-05-15T21:02:51.501Z,11.20
2023-05-15T21:07:53.733Z,11.16
2023-05-15T21:12:58.510Z,11.10
2023-05-15T21:18:01.371Z,11.07
2023-05-15T21:23:03.380Z,11.06
2023-05-15T21:28:05.661Z,11.07
2023-05-15T21:33:09.406Z,11.05
2023-05-15T21:38:16.154Z,11.06
2023-05-15T21:43:18.317Z,11.08
2023-05-15T21:48:21.554Z,11.09
2023-05-15T21:53:25.147Z,11.06
2023-05-15T21:58:27.502Z,11.00
2023-05-15T22:03:29.313Z,10.92
2023-05-15T22:08:31.524Z,10.84
2023-05-15T22:13:33.155Z,10.79
2023-05-15T22:18:35.530Z,10.73
2023-05-15T22:23:37.562Z,10.66
2023-05-15T22:28:39.410Z,10.64
2023-05-15T22:33:41.063Z,10.64
2023-05-15T22:38:42.878Z,10.61
2023-05-15T22:43:44.496Z,10.54
2023-05-15T22:48:46.584Z,10.48
2023-05-15T22:53:48.195Z,10.40
2023-05-15T22:58:49.885Z,10.34
2023-05-15T23:03:51.607Z,10.30
2023-05-15T23:08:54.751Z,10.22
2023-05-15T23:14:02.894Z,10.13
2023-05-15T23:19:04.616Z,10.02
2023-05-15T23:24:06.487Z,9.94
2023-05-15T23:29:08.438Z,9.87
2023-05-15T23:34:10.120Z,9.80
2023-05-15T23:39:12.451Z,9.75
2023-05-15T23:44:14.789Z,9.72
2023-05-15T23:49:17.876Z,9.66
2023-05-15T23:54:19.985Z,9.62
2023-05-15T23:59:21.803Z,9.60
